^^
Station Historical Data
Daily Summary for May 28, 2017 Units:  Both    English   Metric
« Previous Day
Next Day »
Daily Weekly Monthly Yearly Custom
  High: Low: Average:
Temperature: 70.9 °F /  21.6 °C 39.7 °F /  4.3 °C 54.2 °F /  12.3 °C
Dew Point: 36.0 °F /  2.2 °C 24.4 °F /  -4.2 °C 30.1 °F /  -1.1 °C
Humidity: 73% 22% 44%
Wind Speed: 8.9mph /  14.3km/h - 1.3mph /  2.1km/h
Wind Gust: 12.0mph /  19.3km/h - -
Wind- - ENE
Pressure: 30.47 in /  1031.7 hPa 30.32 in /  1026.6 hPa -
Precipitation: 0.00 in /  0 mm    
Historical Graphs
 
 
Tabular Data for May 28, 2017
Time Temperature Dew Point Pressure Wind Wind Speed Wind Gust Humidity Rainfall Rate (Hourly) solar Conditions
00:00 48.4 °F /  9.1 °C 35.1 °F /  1.7 °C 30.32in /  1026.6hPa Calm     60% 0.00in /  0mm 0.0 W/m2
00:06 48.4 °F /  9.1 °C 35.1 °F /  1.7 °C 30.32in /  1026.6hPa Calm     60% 0.00in /  0mm 0.0 W/m2
00:12 48.2 °F /  9 °C 35.4 °F /  1.9 °C 30.33in /  1027hPa Calm     61% 0.00in /  0mm 0.0 W/m2
00:18 48.0 °F /  8.9 °C 34.9 °F /  1.6 °C 30.33in /  1027hPa Calm     60% 0.00in /  0mm 0.0 W/m2
00:24 48.0 °F /  8.9 °C 35.2 °F /  1.8 °C 30.32in /  1026.6hPa Calm     61% 0.00in /  0mm 0.0 W/m2
00:30 47.8 °F /  8.8 °C 34.7 °F /  1.5 °C 30.33in /  1027hPa Calm     60% 0.00in /  0mm 0.0 W/m2
00:36 47.7 °F /  8.7 °C 34.9 °F /  1.6 °C 30.32in /  1026.6hPa Calm     61% 0.00in /  0mm 0.0 W/m2
00:42 47.5 °F /  8.6 °C 35.1 °F /  1.7 °C 30.32in /  1026.6hPa Calm     62% 0.00in /  0mm 0.0 W/m2
00:48 47.5 °F /  8.6 °C 36.0 °F /  2.2 °C 30.32in /  1026.6hPa Calm     64% 0.00in /  0mm 0.0 W/m2
00:54 47.5 °F /  8.6 °C 35.6 °F /  2 °C 30.33in /  1027hPa Calm     63% 0.00in /  0mm 0.0 W/m2
01:00 47.1 °F /  8.4 °C 35.2 °F /  1.8 °C 30.33in /  1027hPa Calm     63% 0.00in /  0mm 0.0 W/m2
01:06 46.9 °F /  8.3 °C 35.1 °F /  1.7 °C 30.33in /  1027hPa Calm     63% 0.00in /  0mm 0.0 W/m2
01:12 46.8 °F /  8.2 °C 35.2 °F /  1.8 °C 30.33in /  1027hPa Calm     64% 0.00in /  0mm 0.0 W/m2
01:18 46.6 °F /  8.1 °C 35.4 °F /  1.9 °C 30.33in /  1027hPa Calm     65% 0.00in /  0mm 0.0 W/m2
01:25 46.2 °F /  7.9 °C 35.1 °F /  1.7 °C 30.33in /  1027hPa Calm     65% 0.00in /  0mm 0.0 W/m2
01:30 46.2 °F /  7.9 °C 35.1 °F /  1.7 °C 30.33in /  1027hPa Calm     65% 0.00in /  0mm 0.0 W/m2
01:37 45.9 °F /  7.7 °C 34.7 °F /  1.5 °C 30.33in /  1027hPa Calm     65% 0.00in /  0mm 0.0 W/m2
01:43 45.7 °F /  7.6 °C 34.2 °F /  1.2 °C 30.33in /  1027hPa Calm     64% 0.00in /  0mm 0.0 W/m2
01:49 45.5 °F /  7.5 °C 34.3 °F /  1.3 °C 30.33in /  1027hPa Calm     65% 0.00in /  0mm 0.0 W/m2
01:55 45.3 °F /  7.4 °C 34.3 °F /  1.3 °C 30.33in /  1027hPa Calm     65% 0.00in /  0mm 0.0 W/m2
02:01 45.0 °F /  7.2 °C 34.3 °F /  1.3 °C 30.33in /  1027hPa Calm     66% 0.00in /  0mm 0.0 W/m2
02:07 45.0 °F /  7.2 °C 34.3 °F /  1.3 °C 30.33in /  1027hPa Calm     66% 0.00in /  0mm 0.0 W/m2
02:13 44.8 °F /  7.1 °C 34.2 °F /  1.2 °C 30.34in /  1027.3hPa Calm     66% 0.00in /  0mm 0.0 W/m2
02:19 44.6 °F /  7 °C 34.0 °F /  1.1 °C 30.34in /  1027.3hPa Calm     66% 0.00in /  0mm 0.0 W/m2
02:25 44.4 °F /  6.9 °C 34.2 °F /  1.2 °C 30.34in /  1027.3hPa Calm     67% 0.00in /  0mm 0.0 W/m2
02:32 44.2 °F /  6.8 °C 34.0 °F /  1.1 °C 30.34in /  1027.3hPa Calm     67% 0.00in /  0mm 0.0 W/m2
02:38 44.1 °F /  6.7 °C 34.2 °F /  1.2 °C 30.34in /  1027.3hPa Calm     68% 0.00in /  0mm 0.0 W/m2
02:44 43.9 °F /  6.6 °C 34.0 °F /  1.1 °C 30.34in /  1027.3hPa Calm     68% 0.00in /  0mm 0.0 W/m2
02:52 43.7 °F /  6.5 °C 33.8 °F /  1 °C 30.34in /  1027.3hPa Calm     68% 0.00in /  0mm 0.0 W/m2
02:58 43.5 °F /  6.4 °C 34.0 °F /  1.1 °C 30.34in /  1027.3hPa Calm     69% 0.00in /  0mm 0.0 W/m2
03:04 43.5 °F /  6.4 °C 34.3 °F /  1.3 °C 30.34in /  1027.3hPa Calm     70% 0.00in /  0mm 0.0 W/m2
03:10 43.3 °F /  6.3 °C 33.8 °F /  1 °C 30.34in /  1027.3hPa Calm     69% 0.00in /  0mm 0.0 W/m2
03:16 43.3 °F /  6.3 °C 34.2 °F /  1.2 °C 30.34in /  1027.3hPa Calm     70% 0.00in /  0mm 0.0 W/m2
03:22 43.5 °F /  6.4 °C 34.3 °F /  1.3 °C 30.34in /  1027.3hPa Calm     70% 0.00in /  0mm 0.0 W/m2
03:28 43.9 °F /  6.6 °C 34.3 °F /  1.3 °C 30.34in /  1027.3hPa Calm     69% 0.00in /  0mm 0.0 W/m2
03:35 44.1 °F /  6.7 °C 34.5 °F /  1.4 °C 30.34in /  1027.3hPa Calm   1.0mph /  1.6km/h 69% 0.00in /  0mm 0.0 W/m2
03:41 44.1 °F /  6.7 °C 34.5 °F /  1.4 °C 30.34in /  1027.3hPa Calm   2.0mph /  3.2km/h 69% 0.00in /  0mm 0.0 W/m2
03:47 44.1 °F /  6.7 °C 34.5 °F /  1.4 °C 30.34in /  1027.3hPa Calm     69% 0.00in /  0mm 0.0 W/m2
03:53 44.1 °F /  6.7 °C 34.5 °F /  1.4 °C 30.34in /  1027.3hPa Calm     69% 0.00in /  0mm 0.0 W/m2
03:59 44.1 °F /  6.7 °C 34.5 °F /  1.4 °C 30.34in /  1027.3hPa Calm     69% 0.00in /  0mm 0.0 W/m2
04:05 44.1 °F /  6.7 °C 34.5 °F /  1.4 °C 30.34in /  1027.3hPa Calm     69% 0.00in /  0mm 0.0 W/m2
04:11 44.1 °F /  6.7 °C 34.5 °F /  1.4 °C 30.34in /  1027.3hPa Calm     69% 0.00in /  0mm 0.0 W/m2
04:18 44.1 °F /  6.7 °C 34.5 °F /  1.4 °C 30.34in /  1027.3hPa Calm     69% 0.00in /  0mm 0.0 W/m2
04:24 43.9 °F /  6.6 °C 34.0 °F /  1.1 °C 30.34in /  1027.3hPa Calm     68% 0.00in /  0mm 0.0 W/m2
04:30 43.9 °F /  6.6 °C 34.3 °F /  1.3 °C 30.34in /  1027.3hPa Calm     69% 0.00in /  0mm 0.0 W/m2
04:36 43.5 °F /  6.4 °C 33.6 °F /  0.9 °C 30.34in /  1027.3hPa Calm     68% 0.00in /  0mm 0.0 W/m2
04:42 43.3 °F /  6.3 °C 33.4 °F /  0.8 °C 30.34in /  1027.3hPa Calm     68% 0.00in /  0mm 0.0 W/m2
04:48 43.0 °F /  6.1 °C 33.1 °F /  0.6 °C 30.35in /  1027.7hPa Calm     68% 0.00in /  0mm 0.0 W/m2
04:54 42.6 °F /  5.9 °C 33.4 °F /  0.8 °C 30.35in /  1027.7hPa Calm     70% 0.00in /  0mm 0.0 W/m2
05:01 42.4 °F /  5.8 °C 33.4 °F /  0.8 °C 30.35in /  1027.7hPa Calm     70% 0.00in /  0mm 0.0 W/m2
05:07 42.4 °F /  5.8 °C 33.6 °F /  0.9 °C 30.35in /  1027.7hPa Calm     71% 0.00in /  0mm 0.0 W/m2
05:13 42.6 °F /  5.9 °C 33.8 °F /  1 °C 30.35in /  1027.7hPa Calm     71% 0.00in /  0mm 0.0 W/m2
05:19 42.6 °F /  5.9 °C 33.1 °F /  0.6 °C 30.36in /  1028hPa Calm     69% 0.00in /  0mm 0.0 W/m2
05:25 42.4 °F /  5.8 °C 33.4 °F /  0.8 °C 30.36in /  1028hPa Calm     70% 0.00in /  0mm 0.0 W/m2
05:31 42.3 °F /  5.7 °C 33.3 °F /  0.7 °C 30.36in /  1028hPa Calm     70% 0.00in /  0mm 0.0 W/m2
05:37 41.7 °F /  5.4 °C 32.4 °F /  0.2 °C 30.36in /  1028hPa Calm     69% 0.00in /  0mm 0.0 W/m2
05:44 41.5 °F /  5.3 °C 32.9 °F /  0.5 °C 30.37in /  1028.3hPa Calm     71% 0.00in /  0mm 0.0 W/m2
05:50 41.4 °F /  5.2 °C 32.4 °F /  0.2 °C 30.37in /  1028.3hPa Calm     70% 0.00in /  0mm 0.0 W/m2
05:56 41.0 °F /  5 °C 32.4 °F /  0.2 °C 30.37in /  1028.3hPa Calm     71% 0.00in /  0mm 0.0 W/m2
06:02 40.8 °F /  4.9 °C 32.2 °F /  0.1 °C 30.37in /  1028.3hPa Calm     71% 0.00in /  0mm 0.0 W/m2
06:08 40.6 °F /  4.8 °C 32.0 °F /  0 °C 30.38in /  1028.7hPa Calm     71% 0.00in /  0mm 0.0 W/m2
06:14 40.3 °F /  4.6 °C 32.0 °F /  0 °C 30.38in /  1028.7hPa Calm     72% 0.00in /  0mm 0.0 W/m2
06:21 39.7 °F /  4.3 °C 31.8 °F /  -0.1 °C 30.38in /  1028.7hPa Calm     73% 0.00in /  0mm 0.0 W/m2
06:27 39.7 °F /  4.3 °C 31.8 °F /  -0.1 °C 30.38in /  1028.7hPa Calm   1.0mph /  1.6km/h 73% 0.00in /  0mm 5.0 W/m2
06:33 39.7 °F /  4.3 °C 31.5 °F /  -0.3 °C 30.38in /  1028.7hPa Calm     72% 0.00in /  0mm 7.0 W/m2
06:39 39.7 °F /  4.3 °C 31.5 °F /  -0.3 °C 30.38in /  1028.7hPa Calm     72% 0.00in /  0mm 9.0 W/m2
06:45 39.7 °F /  4.3 °C 31.5 °F /  -0.3 °C 30.39in /  1029hPa Calm     72% 0.00in /  0mm 11.0 W/m2
06:51 40.3 °F /  4.6 °C 32.0 °F /  0 °C 30.39in /  1029hPa Calm     72% 0.00in /  0mm 12.0 W/m2
06:57 40.6 °F /  4.8 °C 31.6 °F /  -0.2 °C 30.39in /  1029hPa Calm   1.0mph /  1.6km/h 70% 0.00in /  0mm 14.0 W/m2
07:04 41.2 °F /  5.1 °C 31.5 °F /  -0.3 °C 30.39in /  1029hPa Calm     68% 0.00in /  0mm 16.0 W/m2
07:10 41.7 °F /  5.4 °C 31.6 °F /  -0.2 °C 30.39in /  1029hPa Calm   1.0mph /  1.6km/h 67% 0.00in /  0mm 16.0 W/m2
07:16 42.4 °F /  5.8 °C 31.8 °F /  -0.1 °C 30.40in /  1029.3hPa East 2.9mph /  4.7km/h 3.0mph /  4.8km/h 66% 0.00in /  0mm 18.0 W/m2
07:22 43.0 °F /  6.1 °C 31.6 °F /  -0.2 °C 30.40in /  1029.3hPa Calm   3.0mph /  4.8km/h 64% 0.00in /  0mm 19.0 W/m2
07:28 43.5 °F /  6.4 °C 31.8 °F /  -0.1 °C 30.40in /  1029.3hPa Calm   4.0mph /  6.4km/h 63% 0.00in /  0mm 21.0 W/m2
07:34 44.2 °F /  6.8 °C 31.6 °F /  -0.2 °C 30.41in /  1029.7hPa Calm   2.0mph /  3.2km/h 61% 0.00in /  0mm 21.0 W/m2
07:40 45.0 °F /  7.2 °C 31.5 °F /  -0.3 °C 30.41in /  1029.7hPa NNE 2.9mph /  4.7km/h 5.0mph /  8km/h 59% 0.00in /  0mm 23.0 W/m2
07:47 45.7 °F /  7.6 °C 31.8 °F /  -0.1 °C 30.41in /  1029.7hPa ENE 2.9mph /  4.7km/h 4.0mph /  6.4km/h 58% 0.00in /  0mm 25.0 W/m2
07:53 46.8 °F /  8.2 °C 31.8 °F /  -0.1 °C 30.41in /  1029.7hPa East 2.0mph /  3.2km/h 6.0mph /  9.7km/h 56% 0.00in /  0mm 25.0 W/m2
07:59 48.0 °F /  8.9 °C 31.6 °F /  -0.2 °C 30.41in /  1029.7hPa East 2.0mph /  3.2km/h 5.0mph /  8km/h 53% 0.00in /  0mm 30.0 W/m2
08:05 49.5 °F /  9.7 °C 32.0 °F /  0 °C 30.41in /  1029.7hPa Calm   5.0mph /  8km/h 51% 0.00in /  0mm 325.0 W/m2
08:11 51.1 °F /  10.6 °C 31.6 °F /  -0.2 °C 30.41in /  1029.7hPa ENE 2.0mph /  3.2km/h 8.0mph /  12.9km/h 47% 0.00in /  0mm 348.0 W/m2
08:17 52.2 °F /  11.2 °C 31.5 °F /  -0.3 °C 30.41in /  1029.7hPa ENE 0.9mph /  1.4km/h 7.0mph /  11.3km/h 45% 0.00in /  0mm 367.0 W/m2
08:23 53.2 °F /  11.8 °C 31.8 °F /  -0.1 °C 30.42in /  1030hPa Calm   6.0mph /  9.7km/h 44% 0.00in /  0mm 390.0 W/m2
08:29 54.3 °F /  12.4 °C 31.6 °F /  -0.2 °C 30.42in /  1030hPa NE 4.0mph /  6.4km/h 5.0mph /  8km/h 42% 0.00in /  0mm 410.0 W/m2
08:35 55.0 °F /  12.8 °C 31.8 °F /  -0.1 °C 30.42in /  1030hPa Calm   2.0mph /  3.2km/h 41% 0.00in /  0mm 427.0 W/m2
08:42 55.6 °F /  13.1 °C 31.6 °F /  -0.2 °C 30.42in /  1030hPa ESE 6.9mph /  11.1km/h 7.0mph /  11.3km/h 40% 0.00in /  0mm 446.0 W/m2
08:48 56.1 °F /  13.4 °C 32.2 °F /  0.1 °C 30.42in /  1030hPa ENE 2.9mph /  4.7km/h 6.0mph /  9.7km/h 40% 0.00in /  0mm 464.0 W/m2
08:54 56.7 °F /  13.7 °C 32.5 °F /  0.3 °C 30.42in /  1030hPa NE 0.9mph /  1.4km/h 2.0mph /  3.2km/h 40% 0.00in /  0mm 480.0 W/m2
09:00 57.4 °F /  14.1 °C 32.0 °F /  0 °C 30.42in /  1030hPa NNE 0.9mph /  1.4km/h 6.0mph /  9.7km/h 38% 0.00in /  0mm 497.0 W/m2
09:06 57.7 °F /  14.3 °C 32.4 °F /  0.2 °C 30.42in /  1030hPa NE 8.1mph /  13km/h 9.0mph /  14.5km/h 38% 0.00in /  0mm 519.0 W/m2
09:12 57.7 °F /  14.3 °C 32.4 °F /  0.2 °C 30.43in /  1030.4hPa East 2.9mph /  4.7km/h 7.0mph /  11.3km/h 38% 0.00in /  0mm 531.0 W/m2
09:18 57.9 °F /  14.4 °C 32.5 °F /  0.3 °C 30.43in /  1030.4hPa NE 0.9mph /  1.4km/h 8.0mph /  12.9km/h 38% 0.00in /  0mm 547.0 W/m2
09:24 58.5 °F /  14.7 °C 32.4 °F /  0.2 °C 30.43in /  1030.4hPa ENE 0.9mph /  1.4km/h 5.0mph /  8km/h 37% 0.00in /  0mm 563.0 W/m2
09:30 58.6 °F /  14.8 °C 31.1 °F /  -0.5 °C 30.43in /  1030.4hPa SE 2.9mph /  4.7km/h 6.0mph /  9.7km/h 35% 0.00in /  0mm 575.0 W/m2
09:37 59.2 °F /  15.1 °C 30.7 °F /  -0.7 °C 30.43in /  1030.4hPa ENE 6.0mph /  9.7km/h 7.0mph /  11.3km/h 34% 0.00in /  0mm 591.0 W/m2
09:43 59.7 °F /  15.4 °C 30.6 °F /  -0.8 °C 30.42in /  1030hPa ENE 6.9mph /  11.1km/h 7.0mph /  11.3km/h 33% 0.00in /  0mm 603.0 W/m2
09:49 60.3 °F /  15.7 °C 31.1 °F /  -0.5 °C 30.42in /  1030hPa Calm   7.0mph /  11.3km/h 33% 0.00in /  0mm 615.0 W/m2
09:55 60.6 °F /  15.9 °C 30.6 °F /  -0.8 °C 30.42in /  1030hPa South 2.0mph /  3.2km/h 6.0mph /  9.7km/h 32% 0.00in /  0mm 628.0 W/m2
10:01 61.3 °F /  16.3 °C 30.4 °F /  -0.9 °C 30.42in /  1030hPa NNE 2.0mph /  3.2km/h 5.0mph /  8km/h 31% 0.00in /  0mm 640.0 W/m2
10:07 62.1 °F /  16.7 °C 31.1 °F /  -0.5 °C 30.42in /  1030hPa ENE 4.0mph /  6.4km/h 9.0mph /  14.5km/h 31% 0.00in /  0mm 649.0 W/m2
10:13 62.2 °F /  16.8 °C 31.3 °F /  -0.4 °C 30.42in /  1030hPa NE 4.0mph /  6.4km/h 6.0mph /  9.7km/h 31% 0.00in /  0mm 661.0 W/m2
10:19 62.4 °F /  16.9 °C 32.2 °F /  0.1 °C 30.42in /  1030hPa Calm   5.0mph /  8km/h 32% 0.00in /  0mm 670.0 W/m2
10:25 63.0 °F /  17.2 °C 31.1 °F /  -0.5 °C 30.42in /  1030hPa ENE 2.0mph /  3.2km/h 9.0mph /  14.5km/h 30% 0.00in /  0mm 675.0 W/m2
10:32 63.3 °F /  17.4 °C 30.6 °F /  -0.8 °C 30.42in /  1030hPa ENE 4.0mph /  6.4km/h 9.0mph /  14.5km/h 29% 0.00in /  0mm 686.0 W/m2
10:36 63.7 °F /  17.6 °C 30.7 °F /  -0.7 °C 30.41in /  1029.7hPa NE 8.1mph /  13km/h 8.1mph /  13km/h 29% 0.00in /  0mm 689.0 W/m2
10:42 63.9 °F /  17.7 °C 30.2 °F /  -1 °C 30.41in /  1029.7hPa East 2.9mph /  4.7km/h 7.0mph /  11.3km/h 28% 0.00in /  0mm 696.0 W/m2
10:48 64.2 °F /  17.9 °C 31.3 °F /  -0.4 °C 30.41in /  1029.7hPa East 2.9mph /  4.7km/h 6.0mph /  9.7km/h 29% 0.00in /  0mm 701.0 W/m2
10:54 64.8 °F /  18.2 °C 30.9 °F /  -0.6 °C 30.41in /  1029.7hPa ENE 2.9mph /  4.7km/h 8.0mph /  12.9km/h 28% 0.00in /  0mm 707.0 W/m2
11:00 65.1 °F /  18.4 °C 30.4 °F /  -0.9 °C 30.40in /  1029.3hPa NE 4.0mph /  6.4km/h 9.0mph /  14.5km/h 27% 0.00in /  0mm 714.0 W/m2
11:06 65.1 °F /  18.4 °C 30.4 °F /  -0.9 °C 30.40in /  1029.3hPa ENE 0.9mph /  1.4km/h 8.0mph /  12.9km/h 27% 0.00in /  0mm 715.0 W/m2
11:12 65.3 °F /  18.5 °C 30.4 °F /  -0.9 °C 30.40in /  1029.3hPa ENE 6.0mph /  9.7km/h 10.0mph /  16.1km/h 27% 0.00in /  0mm 721.0 W/m2
11:18 65.1 °F /  18.4 °C 31.3 °F /  -0.4 °C 30.40in /  1029.3hPa Calm   4.0mph /  6.4km/h 28% 0.00in /  0mm 724.0 W/m2
11:25 65.7 °F /  18.7 °C 31.6 °F /  -0.2 °C 30.40in /  1029.3hPa NE 0.9mph /  1.4km/h 8.0mph /  12.9km/h 28% 0.00in /  0mm 724.0 W/m2
11:31 66.4 °F /  19.1 °C 29.5 °F /  -1.4 °C 30.40in /  1029.3hPa ENE 4.0mph /  6.4km/h 9.0mph /  14.5km/h 25% 0.00in /  0mm 728.0 W/m2
11:37 66.7 °F /  19.3 °C 30.7 °F /  -0.7 °C 30.40in /  1029.3hPa NE 4.9mph /  7.9km/h 8.0mph /  12.9km/h 26% 0.00in /  0mm 728.0 W/m2
11:43 66.7 °F /  19.3 °C 30.7 °F /  -0.7 °C 30.39in /  1029hPa East 4.9mph /  7.9km/h 7.0mph /  11.3km/h 26% 0.00in /  0mm 729.0 W/m2
11:49 67.3 °F /  19.6 °C 30.2 °F /  -1 °C 30.39in /  1029hPa NE 4.0mph /  6.4km/h 7.0mph /  11.3km/h 25% 0.00in /  0mm 728.0 W/m2
11:55 67.6 °F /  19.8 °C 30.6 °F /  -0.8 °C 30.39in /  1029hPa NNE 8.1mph /  13km/h 8.1mph /  13km/h 25% 0.00in /  0mm 728.0 W/m2
12:01 68.2 °F /  20.1 °C 30.0 °F /  -1.1 °C 30.39in /  1029hPa East 4.0mph /  6.4km/h 6.0mph /  9.7km/h 24% 0.00in /  0mm 724.0 W/m2
12:07 68.5 °F /  20.3 °C 30.4 °F /  -0.9 °C 30.39in /  1029hPa ENE 4.9mph /  7.9km/h 8.0mph /  12.9km/h 24% 0.00in /  0mm 721.0 W/m2
12:14 68.9 °F /  20.5 °C 30.6 °F /  -0.8 °C 30.38in /  1028.7hPa North 2.9mph /  4.7km/h 6.0mph /  9.7km/h 24% 0.00in /  0mm 721.0 W/m2
12:20 68.9 °F /  20.5 °C 30.6 °F /  -0.8 °C 30.38in /  1028.7hPa NE 8.1mph /  13km/h 8.1mph /  13km/h 24% 0.00in /  0mm 715.0 W/m2
12:26 68.7 °F /  20.4 °C 31.5 °F /  -0.3 °C 30.38in /  1028.7hPa NE 2.9mph /  4.7km/h 5.0mph /  8km/h 25% 0.00in /  0mm 710.0 W/m2
12:32 69.3 °F /  20.7 °C 30.9 °F /  -0.6 °C 30.37in /  1028.3hPa NNE 2.9mph /  4.7km/h 9.0mph /  14.5km/h 24% 0.00in /  0mm 707.0 W/m2
12:38 69.6 °F /  20.9 °C 30.2 °F /  -1 °C 30.37in /  1028.3hPa ENE 0.9mph /  1.4km/h 9.0mph /  14.5km/h 23% 0.00in /  0mm 700.0 W/m2
12:46 69.6 °F /  20.9 °C 30.2 °F /  -1 °C 30.37in /  1028.3hPa NNE 2.0mph /  3.2km/h 8.0mph /  12.9km/h 23% 0.00in /  0mm 691.0 W/m2
12:53 69.6 °F /  20.9 °C 30.2 °F /  -1 °C 30.36in /  1028hPa ENE 0.9mph /  1.4km/h 6.0mph /  9.7km/h 23% 0.00in /  0mm 686.0 W/m2
12:59 69.6 °F /  20.9 °C 30.2 °F /  -1 °C 30.36in /  1028hPa North 4.9mph /  7.9km/h 8.0mph /  12.9km/h 23% 0.00in /  0mm 677.0 W/m2
13:05 70.0 °F /  21.1 °C 31.5 °F /  -0.3 °C 30.35in /  1027.7hPa NNE 4.0mph /  6.4km/h 5.0mph /  8km/h 24% 0.00in /  0mm 670.0 W/m2
13:11 70.3 °F /  21.3 °C 30.7 °F /  -0.7 °C 30.35in /  1027.7hPa ENE 6.0mph /  9.7km/h 8.0mph /  12.9km/h 23% 0.00in /  0mm 661.0 W/m2
13:17 70.3 °F /  21.3 °C 30.7 °F /  -0.7 °C 30.34in /  1027.3hPa ENE 2.0mph /  3.2km/h 9.0mph /  14.5km/h 23% 0.00in /  0mm 652.0 W/m2
13:23 70.3 °F /  21.3 °C 30.7 °F /  -0.7 °C 30.34in /  1027.3hPa ENE 8.9mph /  14.3km/h 9.0mph /  14.5km/h 23% 0.00in /  0mm 640.0 W/m2
13:29 70.3 °F /  21.3 °C 29.7 °F /  -1.3 °C 30.34in /  1027.3hPa NNW 4.9mph /  7.9km/h 10.0mph /  16.1km/h 22% 0.00in /  0mm 628.0 W/m2
13:35 70.5 °F /  21.4 °C 30.9 °F /  -0.6 °C 30.34in /  1027.3hPa East 0.9mph /  1.4km/h 4.0mph /  6.4km/h 23% 0.00in /  0mm 615.0 W/m2
13:41 70.5 °F /  21.4 °C 29.8 °F /  -1.2 °C 30.34in /  1027.3hPa ESE 2.0mph /  3.2km/h 9.0mph /  14.5km/h 22% 0.00in /  0mm 605.0 W/m2
13:48 70.5 °F /  21.4 °C 30.9 °F /  -0.6 °C 30.34in /  1027.3hPa NNE 2.0mph /  3.2km/h 5.0mph /  8km/h 23% 0.00in /  0mm 591.0 W/m2
13:54 70.9 °F /  21.6 °C 31.3 °F /  -0.4 °C 30.34in /  1027.3hPa NNE 4.9mph /  7.9km/h 7.0mph /  11.3km/h 23% 0.00in /  0mm 577.0 W/m2
14:00 70.9 °F /  21.6 °C 30.2 °F /  -1 °C 30.34in /  1027.3hPa East 2.0mph /  3.2km/h 11.0mph /  17.7km/h 22% 0.00in /  0mm 563.0 W/m2
14:06 70.7 °F /  21.5 °C 30.0 °F /  -1.1 °C 30.34in /  1027.3hPa ENE 8.1mph /  13km/h 9.0mph /  14.5km/h 22% 0.00in /  0mm 550.0 W/m2
14:12 70.5 °F /  21.4 °C 29.8 °F /  -1.2 °C 30.33in /  1027hPa North 4.9mph /  7.9km/h 12.0mph /  19.3km/h 22% 0.00in /  0mm 534.0 W/m2
14:18 70.5 °F /  21.4 °C 29.8 °F /  -1.2 °C 30.33in /  1027hPa East 4.0mph /  6.4km/h 8.0mph /  12.9km/h 22% 0.00in /  0mm 524.0 W/m2
14:24 70.5 °F /  21.4 °C 29.8 °F /  -1.2 °C 30.33in /  1027hPa ENE 2.9mph /  4.7km/h 6.0mph /  9.7km/h 22% 0.00in /  0mm 506.0 W/m2
14:30 70.5 °F /  21.4 °C 30.9 °F /  -0.6 °C 30.33in /  1027hPa NE 4.0mph /  6.4km/h 8.0mph /  12.9km/h 23% 0.00in /  0mm 490.0 W/m2
14:36 70.3 °F /  21.3 °C 29.7 °F /  -1.3 °C 30.33in /  1027hPa East 6.9mph /  11.1km/h 8.0mph /  12.9km/h 22% 0.00in /  0mm 473.0 W/m2
14:43 70.5 °F /  21.4 °C 29.8 °F /  -1.2 °C 30.33in /  1027hPa ESE 0.9mph /  1.4km/h 7.0mph /  11.3km/h 22% 0.00in /  0mm 455.0 W/m2
14:49 70.5 °F /  21.4 °C 29.8 °F /  -1.2 °C 30.33in /  1027hPa ENE 4.9mph /  7.9km/h 10.0mph /  16.1km/h 22% 0.00in /  0mm 438.0 W/m2
14:51 70.5 °F /  21.4 °C 30.9 °F /  -0.6 °C 30.33in /  1027hPa ENE 4.0mph /  6.4km/h 10.0mph /  16.1km/h 23% 0.00in /  0mm 432.0 W/m2
14:57 70.3 °F /  21.3 °C 29.7 °F /  -1.3 °C 30.33in /  1027hPa ENE 4.0mph /  6.4km/h 9.0mph /  14.5km/h 22% 0.00in /  0mm 411.0 W/m2
15:03 70.2 °F /  21.2 °C 29.5 °F /  -1.4 °C 30.33in /  1027hPa Calm   7.0mph /  11.3km/h 22% 0.00in /  0mm 394.0 W/m2
15:09 70.0 °F /  21.1 °C 29.3 °F /  -1.5 °C 30.33in /  1027hPa NE 4.0mph /  6.4km/h 6.0mph /  9.7km/h 22% 0.00in /  0mm 376.0 W/m2
15:15 69.6 °F /  20.9 °C 29.1 °F /  -1.6 °C 30.33in /  1027hPa NE 0.9mph /  1.4km/h 4.0mph /  6.4km/h 22% 0.00in /  0mm 357.0 W/m2
15:21 69.3 °F /  20.7 °C 28.8 °F /  -1.8 °C 30.33in /  1027hPa East 2.9mph /  4.7km/h 7.0mph /  11.3km/h 22% 0.00in /  0mm 338.0 W/m2
15:28 69.1 °F /  20.6 °C 28.6 °F /  -1.9 °C 30.33in /  1027hPa NNE 4.0mph /  6.4km/h 7.0mph /  11.3km/h 22% 0.00in /  0mm 42.0 W/m2
15:34 68.9 °F /  20.5 °C 28.4 °F /  -2 °C 30.33in /  1027hPa North 4.0mph /  6.4km/h 6.0mph /  9.7km/h 22% 0.00in /  0mm 37.0 W/m2
15:40 68.5 °F /  20.3 °C 28.2 °F /  -2.1 °C 30.33in /  1027hPa NE 4.0mph /  6.4km/h 7.0mph /  11.3km/h 22% 0.00in /  0mm 35.0 W/m2
15:46 68.4 °F /  20.2 °C 29.1 °F /  -1.6 °C 30.33in /  1027hPa Calm   5.0mph /  8km/h 23% 0.00in /  0mm 33.0 W/m2
15:52 68.2 °F /  20.1 °C 27.9 °F /  -2.3 °C 30.33in /  1027hPa ENE 2.9mph /  4.7km/h 5.0mph /  8km/h 22% 0.00in /  0mm 32.0 W/m2
15:58 67.8 °F /  19.9 °C 28.6 °F /  -1.9 °C 30.34in /  1027.3hPa East 2.9mph /  4.7km/h 8.0mph /  12.9km/h 23% 0.00in /  0mm 26.0 W/m2
16:04 67.5 °F /  19.7 °C 28.4 °F /  -2 °C 30.34in /  1027.3hPa ENE 2.9mph /  4.7km/h 4.0mph /  6.4km/h 23% 0.00in /  0mm 21.0 W/m2
16:10 67.1 °F /  19.5 °C 28.0 °F /  -2.2 °C 30.34in /  1027.3hPa NE 2.0mph /  3.2km/h 10.0mph /  16.1km/h 23% 0.00in /  0mm 19.0 W/m2
16:17 66.7 °F /  19.3 °C 27.7 °F /  -2.4 °C 30.34in /  1027.3hPa Calm   7.0mph /  11.3km/h 23% 0.00in /  0mm 18.0 W/m2
16:23 66.4 °F /  19.1 °C 27.5 °F /  -2.5 °C 30.34in /  1027.3hPa NE 0.9mph /  1.4km/h 4.0mph /  6.4km/h 23% 0.00in /  0mm 18.0 W/m2
16:29 66.0 °F /  18.9 °C 27.1 °F /  -2.7 °C 30.35in /  1027.7hPa North 6.0mph /  9.7km/h 8.0mph /  12.9km/h 23% 0.00in /  0mm 16.0 W/m2
16:41 65.3 °F /  18.5 °C 26.6 °F /  -3 °C 30.35in /  1027.7hPa NNE 0.9mph /  1.4km/h 5.0mph /  8km/h 23% 0.00in /  0mm 14.0 W/m2
16:47 64.9 °F /  18.3 °C 26.2 °F /  -3.2 °C 30.35in /  1027.7hPa ENE 0.9mph /  1.4km/h 4.0mph /  6.4km/h 23% 0.00in /  0mm 12.0 W/m2
16:53 64.6 °F /  18.1 °C 27.0 °F /  -2.8 °C 30.35in /  1027.7hPa Calm   4.0mph /  6.4km/h 24% 0.00in /  0mm 11.0 W/m2
17:00 64.2 °F /  17.9 °C 26.6 °F /  -3 °C 30.36in /  1028hPa ENE 4.0mph /  6.4km/h 4.0mph /  6.4km/h 24% 0.00in /  0mm 9.0 W/m2
17:06 63.7 °F /  17.6 °C 26.2 °F /  -3.2 °C 30.36in /  1028hPa Calm   4.0mph /  6.4km/h 24% 0.00in /  0mm 7.0 W/m2
17:12 63.1 °F /  17.3 °C 25.7 °F /  -3.5 °C 30.36in /  1028hPa Calm   4.0mph /  6.4km/h 24% 0.00in /  0mm 5.0 W/m2
17:18 62.6 °F /  17 °C 26.2 °F /  -3.2 °C 30.37in /  1028.3hPa Calm   1.0mph /  1.6km/h 25% 0.00in /  0mm 0.0 W/m2
17:24 62.1 °F /  16.7 °C 25.9 °F /  -3.4 °C 30.37in /  1028.3hPa Calm   1.0mph /  1.6km/h 25% 0.00in /  0mm 0.0 W/m2
17:30 61.5 °F /  16.4 °C 25.3 °F /  -3.7 °C 30.37in /  1028.3hPa Calm   2.0mph /  3.2km/h 25% 0.00in /  0mm 0.0 W/m2
17:36 61.0 °F /  16.1 °C 25.9 °F /  -3.4 °C 30.37in /  1028.3hPa Calm     26% 0.00in /  0mm 0.0 W/m2
17:42 60.3 °F /  15.7 °C 26.1 °F /  -3.3 °C 30.37in /  1028.3hPa Calm     27% 0.00in /  0mm 0.0 W/m2
17:49 59.7 °F /  15.4 °C 25.7 °F /  -3.5 °C 30.37in /  1028.3hPa Calm     27% 0.00in /  0mm 0.0 W/m2
17:55 59.2 °F /  15.1 °C 26.1 °F /  -3.3 °C 30.37in /  1028.3hPa Calm     28% 0.00in /  0mm 0.0 W/m2
18:01 58.5 °F /  14.7 °C 26.2 °F /  -3.2 °C 30.37in /  1028.3hPa Calm   1.0mph /  1.6km/h 29% 0.00in /  0mm 0.0 W/m2
18:07 57.7 °F /  14.3 °C 25.7 °F /  -3.5 °C 30.37in /  1028.3hPa Calm   1.0mph /  1.6km/h 29% 0.00in /  0mm 0.0 W/m2
18:13 57.4 °F /  14.1 °C 26.2 °F /  -3.2 °C 30.38in /  1028.7hPa Calm     30% 0.00in /  0mm 0.0 W/m2
18:19 56.7 °F /  13.7 °C 25.5 °F /  -3.6 °C 30.38in /  1028.7hPa ESE 0.9mph /  1.4km/h 1.0mph /  1.6km/h 30% 0.00in /  0mm 0.0 W/m2
18:25 56.1 °F /  13.4 °C 25.9 °F /  -3.4 °C 30.38in /  1028.7hPa Calm     31% 0.00in /  0mm 0.0 W/m2
18:31 55.6 °F /  13.1 °C 25.3 °F /  -3.7 °C 30.39in /  1029hPa Calm     31% 0.00in /  0mm 0.0 W/m2
18:38 55.2 °F /  12.9 °C 25.9 °F /  -3.4 °C 30.39in /  1029hPa Calm   1.0mph /  1.6km/h 32% 0.00in /  0mm 0.0 W/m2
18:44 54.9 °F /  12.7 °C 26.2 °F /  -3.2 °C 30.40in /  1029.3hPa Calm   3.0mph /  4.8km/h 33% 0.00in /  0mm 0.0 W/m2
18:50 54.3 °F /  12.4 °C 25.9 °F /  -3.4 °C 30.40in /  1029.3hPa Calm   1.0mph /  1.6km/h 33% 0.00in /  0mm 0.0 W/m2
18:56 54.1 °F /  12.3 °C 26.4 °F /  -3.1 °C 30.40in /  1029.3hPa Calm   2.0mph /  3.2km/h 34% 0.00in /  0mm 0.0 W/m2
19:02 53.8 °F /  12.1 °C 26.1 °F /  -3.3 °C 30.41in /  1029.7hPa Calm     34% 0.00in /  0mm 0.0 W/m2
19:08 53.4 °F /  11.9 °C 26.4 °F /  -3.1 °C 30.41in /  1029.7hPa Calm   1.0mph /  1.6km/h 35% 0.00in /  0mm 0.0 W/m2
19:14 53.1 °F /  11.7 °C 26.1 °F /  -3.3 °C 30.41in /  1029.7hPa Calm   1.0mph /  1.6km/h 35% 0.00in /  0mm 0.0 W/m2
19:21 52.7 °F /  11.5 °C 26.4 °F /  -3.1 °C 30.42in /  1030hPa Calm     36% 0.00in /  0mm 0.0 W/m2
19:27 52.3 °F /  11.3 °C 26.2 °F /  -3.2 °C 30.42in /  1030hPa Calm   1.0mph /  1.6km/h 36% 0.00in /  0mm 0.0 W/m2
19:39 52.0 °F /  11.1 °C 26.6 °F /  -3 °C 30.42in /  1030hPa Calm   1.0mph /  1.6km/h 37% 0.00in /  0mm 0.0 W/m2
19:45 51.6 °F /  10.9 °C 26.2 °F /  -3.2 °C 30.42in /  1030hPa Calm     37% 0.00in /  0mm 0.0 W/m2
19:51 51.6 °F /  10.9 °C 26.2 °F /  -3.2 °C 30.42in /  1030hPa Calm     37% 0.00in /  0mm 0.0 W/m2
19:57 51.3 °F /  10.7 °C 26.6 °F /  -3 °C 30.43in /  1030.4hPa Calm     38% 0.00in /  0mm 0.0 W/m2
20:03 51.1 °F /  10.6 °C 26.4 °F /  -3.1 °C 30.43in /  1030.4hPa Calm     38% 0.00in /  0mm 0.0 W/m2
20:10 50.7 °F /  10.4 °C 26.1 °F /  -3.3 °C 30.43in /  1030.4hPa Calm     38% 0.00in /  0mm 0.0 W/m2
20:16 50.5 °F /  10.3 °C 25.9 °F /  -3.4 °C 30.43in /  1030.4hPa Calm     38% 0.00in /  0mm 0.0 W/m2
20:22 50.4 °F /  10.2 °C 25.7 °F /  -3.5 °C 30.44in /  1030.7hPa Calm     38% 0.00in /  0mm 0.0 W/m2
20:28 50.0 °F /  10 °C 26.1 °F /  -3.3 °C 30.44in /  1030.7hPa Calm     39% 0.00in /  0mm 0.0 W/m2
20:34 49.8 °F /  9.9 °C 25.9 °F /  -3.4 °C 30.44in /  1030.7hPa Calm     39% 0.00in /  0mm 0.0 W/m2
20:41 49.6 °F /  9.8 °C 25.7 °F /  -3.5 °C 30.44in /  1030.7hPa Calm     39% 0.00in /  0mm 0.0 W/m2
20:47 49.5 °F /  9.7 °C 25.5 °F /  -3.6 °C 30.44in /  1030.7hPa Calm     39% 0.00in /  0mm 0.0 W/m2
20:53 49.3 °F /  9.6 °C 25.3 °F /  -3.7 °C 30.45in /  1031hPa Calm     39% 0.00in /  0mm 0.0 W/m2
20:59 49.1 °F /  9.5 °C 25.2 °F /  -3.8 °C 30.45in /  1031hPa Calm     39% 0.00in /  0mm 0.0 W/m2
21:05 48.9 °F /  9.4 °C 25.0 °F /  -3.9 °C 30.45in /  1031hPa Calm     39% 0.00in /  0mm 0.0 W/m2
21:11 48.7 °F /  9.3 °C 24.8 °F /  -4 °C 30.45in /  1031hPa Calm     39% 0.00in /  0mm 0.0 W/m2
21:17 48.6 °F /  9.2 °C 25.3 °F /  -3.7 °C 30.45in /  1031hPa Calm     40% 0.00in /  0mm 0.0 W/m2
21:23 48.4 °F /  9.1 °C 25.2 °F /  -3.8 °C 30.45in /  1031hPa Calm     40% 0.00in /  0mm 0.0 W/m2
21:30 48.2 °F /  9 °C 25.5 °F /  -3.6 °C 30.45in /  1031hPa Calm     41% 0.00in /  0mm 0.0 W/m2
21:36 48.0 °F /  8.9 °C 25.5 °F /  -3.6 °C 30.45in /  1031hPa Calm     41% 0.00in /  0mm 0.0 W/m2
21:42 48.0 °F /  8.9 °C 24.8 °F /  -4 °C 30.46in /  1031.4hPa Calm     40% 0.00in /  0mm 0.0 W/m2
21:48 48.0 °F /  8.9 °C 24.8 °F /  -4 °C 30.46in /  1031.4hPa Calm     40% 0.00in /  0mm 0.0 W/m2
21:54 48.2 °F /  9 °C 25.0 °F /  -3.9 °C 30.46in /  1031.4hPa Calm     40% 0.00in /  0mm 0.0 W/m2
22:00 48.0 °F /  8.9 °C 24.8 °F /  -4 °C 30.46in /  1031.4hPa Calm     40% 0.00in /  0mm 0.0 W/m2
22:06 47.8 °F /  8.8 °C 24.6 °F /  -4.1 °C 30.46in /  1031.4hPa Calm     40% 0.00in /  0mm 0.0 W/m2
22:12 47.8 °F /  8.8 °C 24.6 °F /  -4.1 °C 30.46in /  1031.4hPa Calm     40% 0.00in /  0mm 0.0 W/m2
22:19 47.7 °F /  8.7 °C 24.4 °F /  -4.2 °C 30.46in /  1031.4hPa Calm     40% 0.00in /  0mm 0.0 W/m2
22:25 47.5 °F /  8.6 °C 25.0 °F /  -3.9 °C 30.46in /  1031.4hPa Calm     41% 0.00in /  0mm 0.0 W/m2
22:31 47.3 °F /  8.5 °C 24.8 °F /  -4 °C 30.47in /  1031.7hPa Calm     41% 0.00in /  0mm 0.0 W/m2
22:37 47.1 °F /  8.4 °C 25.2 °F /  -3.8 °C 30.47in /  1031.7hPa Calm     42% 0.00in /  0mm 0.0 W/m2
22:43 47.1 °F /  8.4 °C 25.2 °F /  -3.8 °C 30.47in /  1031.7hPa Calm     42% 0.00in /  0mm 0.0 W/m2
22:49 46.9 °F /  8.3 °C 24.4 °F /  -4.2 °C 30.47in /  1031.7hPa Calm     41% 0.00in /  0mm 0.0 W/m2
22:55 46.8 °F /  8.2 °C 24.8 °F /  -4 °C 30.47in /  1031.7hPa Calm     42% 0.00in /  0mm 0.0 W/m2
23:01 46.6 °F /  8.1 °C 24.8 °F /  -4 °C 30.46in /  1031.4hPa Calm     42% 0.00in /  0mm 0.0 W/m2
23:06 46.4 °F /  8 °C 25.7 °F /  -3.5 °C 30.46in /  1031.4hPa Calm     44% 0.00in /  0mm 0.0 W/m2
23:12 46.2 °F /  7.9 °C 25.5 °F /  -3.6 °C 30.46in /  1031.4hPa Calm     44% 0.00in /  0mm 0.0 W/m2
23:18 46.0 °F /  7.8 °C 24.8 °F /  -4 °C 30.46in /  1031.4hPa Calm     43% 0.00in /  0mm 0.0 W/m2
23:24 46.0 °F /  7.8 °C 25.9 °F /  -3.4 °C 30.47in /  1031.7hPa Calm     45% 0.00in /  0mm 0.0 W/m2
23:30 45.9 °F /  7.7 °C 25.7 °F /  -3.5 °C 30.46in /  1031.4hPa Calm     45% 0.00in /  0mm 0.0 W/m2
23:36 45.3 °F /  7.4 °C 25.7 °F /  -3.5 °C 30.46in /  1031.4hPa Calm     46% 0.00in /  0mm 0.0 W/m2
23:42 45.1 °F /  7.3 °C 26.1 °F /  -3.3 °C 30.46in /  1031.4hPa Calm     47% 0.00in /  0mm 0.0 W/m2
23:48 45.0 °F /  7.2 °C 26.4 °F /  -3.1 °C 30.46in /  1031.4hPa Calm     48% 0.00in /  0mm 0.0 W/m2
23:54 44.6 °F /  7 °C 26.1 °F /  -3.3 °C 30.46in /  1031.4hPa Calm     48% 0.00in /  0mm 0.0 W/m2
Olympia, Windhoek, Namibia
Compliments of Weather Underground - 3 mb